Time;durP1;ratioP1;P1;durP2;ratioP2;P2;SDS_P1;SDS_P2;PMS_P1;PMS_P2;Temp;Humidity;BMP_temperature;BMP_pressure;BME280_temperature;BME280_humidity;BME280_pressure;Samples;Min_cycle;Max_cycle;Signal;HPM_P1;HPM_P2
2022/06/17 00:00:56;;;;;;;3.97;3.67;;;27.00;37.50;;;;;;5025893;28;20443;-46
2022/06/17 00:03:23;;;;;;;6.87;3.50;;;27.00;37.80;;;;;;5023819;28;20479;-47
2022/06/17 00:05:50;;;;;;;3.07;2.87;;;27.00;37.90;;;;;;5023593;28;20454;-48
2022/06/17 00:08:30;;;;;;;3.70;3.13;;;27.00;38.10;;;;;;5022670;28;20440;-48
2022/06/17 00:10:55;;;;;;;4.17;3.77;;;27.00;38.20;;;;;;5026130;28;20558;-49
2022/06/17 00:13:23;;;;;;;3.97;3.67;;;27.10;38.30;;;;;;5028737;28;20503;-45
2022/06/17 00:15:49;;;;;;;5.07;3.93;;;27.10;38.00;;;;;;5027814;28;20712;-47
2022/06/17 00:18:16;;;;;;;4.07;3.77;;;27.10;38.00;;;;;;5022048;28;20448;-47
2022/06/17 00:20:42;;;;;;;5.13;3.60;;;27.10;37.90;;;;;;5023531;28;20220;-48
2022/06/17 00:23:14;;;;;;;3.40;3.17;;;27.10;37.90;;;;;;5024711;28;20494;-46
2022/06/17 00:25:41;;;;;;;4.13;3.63;;;27.10;38.00;;;;;;5025867;28;20443;-48
2022/06/17 00:28:12;;;;;;;5.37;3.60;;;27.10;38.30;;;;;;5025768;28;20444;-46
2022/06/17 00:30:38;;;;;;;3.97;3.60;;;27.00;38.00;;;;;;5021046;28;20455;-50
2022/06/17 00:33:04;;;;;;;3.47;3.17;;;27.00;38.20;;;;;;5021795;28;20488;-49
2022/06/17 00:35:39;;;;;;;4.03;3.73;;;26.90;38.30;;;;;;5028118;28;20440;-48
2022/06/17 00:38:09;;;;;;;3.90;3.60;;;26.90;38.40;;;;;;5025300;28;20450;-49
2022/06/17 00:40:35;;;;;;;3.30;3.00;;;26.90;38.60;;;;;;5025685;28;20436;-48
2022/06/17 00:43:10;;;;;;;3.80;3.50;;;26.80;38.40;;;;;;5019933;28;20452;-47
2022/06/17 00:45:45;;;;;;;3.83;3.57;;;26.90;38.60;;;;;;5021298;28;20437;-50
2022/06/17 00:48:22;;;;;;;4.83;3.37;;;26.90;38.50;;;;;;5022394;28;20435;-50
2022/06/17 00:50:58;;;;;;;3.40;3.10;;;26.80;38.50;;;;;;5027209;28;20450;-50
2022/06/17 00:53:40;;;;;;;3.03;2.83;;;26.80;38.50;;;;;;5013546;28;20518;-50
2022/06/17 00:56:17;;;;;;;4.23;3.70;;;26.80;38.60;;;;;;5027705;28;20471;-45
2022/06/17 00:59:03;;;;;;;4.40;3.70;;;26.80;38.50;;;;;;5027157;28;20448;-50
2022/06/17 01:01:56;;;;;;;4.30;4.00;;;26.80;38.40;;;;;;5025644;28;20815;-45
2022/06/17 01:04:24;;;;;;;3.70;3.40;;;26.80;38.40;;;;;;5018409;28;20967;-49
2022/06/17 01:06:58;;;;;;;4.33;3.67;;;26.70;38.70;;;;;;5018656;28;20441;-46
2022/06/17 01:12:17;;;;;;;4.37;3.77;;;26.60;39.30;;;;;;5023388;28;20498;-46
2022/06/17 01:14:43;;;;;;;4.43;4.13;;;26.50;39.70;;;;;;5025511;28;20873;-46
2022/06/17 01:17:15;;;;;;;3.73;3.43;;;26.40;39.70;;;;;;5024349;28;20444;-49
2022/06/17 01:19:41;;;;;;;4.73;4.10;;;26.40;40.20;;;;;;5028515;28;20872;-47
2022/06/17 01:22:38;;;;;;;4.20;3.70;;;26.30;40.60;;;;;;5025079;28;20499;-48
2022/06/17 01:25:10;;;;;;;4.23;3.53;;;26.20;40.90;;;;;;5023824;28;20475;-48
2022/06/17 01:27:43;;;;;;;6.50;3.83;;;26.10;41.10;;;;;;5017489;28;20447;-48
2022/06/17 01:30:31;;;;;;;4.27;3.97;;;25.90;41.00;;;;;;5022106;28;20540;-50
2022/06/17 01:33:01;;;;;;;4.30;3.90;;;25.90;41.20;;;;;;5021818;28;20577;-46
2022/06/17 01:35:31;;;;;;;5.43;3.87;;;25.90;41.10;;;;;;5027165;28;20447;-48
2022/06/17 01:37:57;;;;;;;5.13;4.63;;;25.90;41.10;;;;;;5023750;28;20940;-49
2022/06/17 01:40:28;;;;;;;4.40;4.00;;;25.90;40.80;;;;;;5026892;28;20436;-46
2022/06/17 01:42:55;;;;;;;4.10;3.80;;;25.90;40.60;;;;;;5021974;28;20471;-49
2022/06/17 01:45:21;;;;;;;5.40;4.10;;;25.90;40.50;;;;;;5022508;28;20475;-46
2022/06/17 01:47:47;;;;;;;5.07;4.50;;;25.90;40.50;;;;;;5026152;28;20475;-47
2022/06/17 01:50:19;;;;;;;4.20;3.90;;;25.80;40.30;;;;;;5012475;28;20205;-46
2022/06/17 01:52:49;;;;;;;5.67;4.03;;;25.80;40.30;;;;;;5020215;28;20225;-48
2022/06/17 01:55:23;;;;;;;5.87;4.17;;;25.70;40.40;;;;;;5012916;28;20484;-45
2022/06/17 01:58:17;;;;;;;4.13;3.83;;;25.60;40.70;;;;;;5022775;28;20526;-49
2022/06/17 02:00:44;;;;;;;3.93;3.60;;;25.60;40.60;;;;;;5017038;28;20470;-48
2022/06/17 02:03:15;;;;;;;4.10;3.70;;;25.50;41.00;;;;;;5027216;28;20482;-45
2022/06/17 02:05:45;;;;;;;4.27;3.97;;;25.60;41.20;;;;;;5026564;28;20927;-45
2022/06/17 02:08:11;;;;;;;4.03;3.73;;;25.50;40.60;;;;;;5027731;28;20456;-46
2022/06/17 02:10:44;;;;;;;3.67;3.37;;;25.50;40.90;;;;;;5025689;28;20501;-50
2022/06/17 02:13:13;;;;;;;3.83;3.53;;;25.40;40.70;;;;;;5024966;28;20247;-47
2022/06/17 02:15:39;;;;;;;3.90;3.60;;;25.40;40.80;;;;;;5028412;28;20428;-48
2022/06/17 02:18:14;;;;;;;4.53;3.73;;;25.20;41.00;;;;;;5023265;28;20501;-46
2022/06/17 02:20:41;;;;;;;3.77;3.47;;;25.20;41.20;;;;;;5023006;28;21008;-45
2022/06/17 02:23:07;;;;;;;3.77;3.40;;;25.20;41.20;;;;;;5017594;28;20490;-45
2022/06/17 02:25:41;;;;;;;4.40;3.63;;;25.20;41.50;;;;;;5025534;28;20444;-44
2022/06/17 02:28:08;;;;;;;3.57;3.30;;;25.10;41.10;;;;;;5023750;28;20900;-45
2022/06/17 02:30:35;;;;;;;3.47;3.17;;;25.00;40.90;;;;;;5027436;28;21021;-44
2022/06/17 02:33:03;;;;;;;4.23;3.83;;;24.90;41.10;;;;;;5022378;28;20490;-46
2022/06/17 02:35:44;;;;;;;3.50;3.20;;;24.60;41.10;;;;;;5027584;28;20539;-44
2022/06/17 02:38:16;;;;;;;3.60;3.30;;;24.50;41.30;;;;;;5014563;28;20498;-45
2022/06/17 02:40:47;;;;;;;3.93;3.30;;;24.30;41.50;;;;;;5027044;28;20529;-46
2022/06/17 02:43:18;;;;;;;3.70;3.50;;;24.30;41.60;;;;;;5022866;28;20994;-47
2022/06/17 02:45:48;;;;;;;3.50;3.20;;;24.30;41.90;;;;;;5022285;28;20452;-44
2022/06/17 02:48:28;;;;;;;4.77;3.30;;;24.30;41.70;;;;;;5026498;28;20448;-44
2022/06/17 02:50:58;;;;;;;4.50;3.90;;;24.30;41.60;;;;;;5027383;28;20454;-44
2022/06/17 02:53:28;;;;;;;3.80;3.40;;;24.20;41.70;;;;;;5021249;28;20483;-45
2022/06/17 02:55:55;;;;;;;4.40;3.57;;;24.10;41.90;;;;;;5025960;28;20492;-45
2022/06/17 02:58:39;;;;;;;3.57;3.27;;;24.00;42.00;;;;;;5030565;28;20523;-45
2022/06/17 03:01:18;;;;;;;4.20;3.90;;;23.80;42.30;;;;;;5022650;28;20468;-45
2022/06/17 03:03:45;;;;;;;3.33;3.03;;;23.80;42.60;;;;;;5026750;28;21018;-45
2022/06/17 03:06:20;;;;;;;4.30;4.00;;;23.70;42.60;;;;;;5022695;28;20467;-46
2022/06/17 03:08:50;;;;;;;4.40;3.60;;;23.60;42.70;;;;;;5028050;28;20504;-44
2022/06/17 03:11:16;;;;;;;4.57;3.40;;;23.60;42.90;;;;;;5025481;28;20478;-45
2022/06/17 03:13:54;;;;;;;3.73;3.40;;;23.60;43.00;;;;;;5018827;28;21044;-45
2022/06/17 03:16:22;;;;;;;3.50;3.20;;;23.60;42.90;;;;;;5029511;28;20451;-44
2022/06/17 03:18:49;;;;;;;4.20;3.80;;;23.70;43.10;;;;;;5024184;28;20570;-47
2022/06/17 03:21:20;;;;;;;3.80;3.47;;;23.60;43.10;;;;;;5026917;28;21023;-45
2022/06/17 03:24:25;;;;;;;3.40;3.17;;;23.60;43.40;;;;;;5029391;28;20529;-44
2022/06/17 03:27:07;;;;;;;3.60;3.30;;;23.60;43.50;;;;;;5015013;28;20444;-46
2022/06/17 03:29:34;;;;;;;4.87;3.83;;;23.60;43.60;;;;;;5027446;28;20451;-46
2022/06/17 03:32:03;;;;;;;4.63;3.37;;;23.60;43.60;;;;;;5020638;28;20530;-44
2022/06/17 03:34:40;;;;;;;3.50;3.20;;;23.60;43.80;;;;;;5030075;28;20853;-44
2022/06/17 03:37:21;;;;;;;4.10;3.80;;;23.50;44.10;;;;;;5027426;28;20440;-45
2022/06/17 03:39:52;;;;;;;3.83;3.47;;;23.30;45.00;;;;;;5023071;28;21099;-45
2022/06/17 03:42:21;;;;;;;7.50;4.23;;;23.10;45.20;;;;;;5014041;28;20444;-45
2022/06/17 03:44:59;;;;;;;4.13;3.83;;;23.10;45.20;;;;;;5020981;28;20453;-45
2022/06/17 03:48:21;;;;;;;4.13;3.67;;;23.10;45.30;;;;;;5021381;28;20470;-44
2022/06/17 03:50:48;;;;;;;5.30;3.90;;;23.00;45.10;;;;;;4942496;28;21155;-45
2022/06/17 03:53:26;;;;;;;4.30;4.00;;;23.00;45.20;;;;;;4946741;28;21053;-44
2022/06/17 03:55:56;;;;;;;5.37;3.77;;;22.90;45.50;;;;;;5000012;28;20491;-45
2022/06/17 03:58:23;;;;;;;3.87;3.57;;;22.80;45.80;;;;;;5028057;28;20436;-44
2022/06/17 04:01:02;;;;;;;3.87;3.20;;;22.80;46.10;;;;;;5026364;28;20440;-44
2022/06/17 04:03:33;;;;;;;4.40;3.80;;;22.70;45.90;;;;;;5021824;28;20579;-46
2022/06/17 04:06:05;;;;;;;4.07;3.50;;;22.70;46.00;;;;;;5027658;28;20470;-44
2022/06/17 04:08:31;;;;;;;5.03;3.53;;;22.70;46.10;;;;;;5028406;28;20440;-44
2022/06/17 04:10:58;;;;;;;4.00;3.67;;;22.60;46.40;;;;;;5020282;28;20455;-44
2022/06/17 04:13:29;;;;;;;6.47;3.20;;;22.50;46.60;;;;;;5022960;28;20577;-46
2022/06/17 04:16:13;;;;;;;3.93;3.63;;;22.40;46.70;;;;;;5026661;28;20483;-45
2022/06/17 04:18:38;;;;;;;3.87;3.57;;;22.30;46.90;;;;;;5024077;28;20455;-45
2022/06/17 04:21:06;;;;;;;4.03;3.73;;;22.20;47.00;;;;;;5027307;28;20440;-48
2022/06/17 04:23:34;;;;;;;6.47;4.37;;;22.20;47.10;;;;;;5025366;28;20200;-47
2022/06/17 04:26:20;;;;;;;4.60;4.20;;;22.20;47.10;;;;;;5013988;28;20440;-45
2022/06/17 04:28:53;;;;;;;3.97;3.67;;;22.30;47.40;;;;;;5022558;28;20436;-49
2022/06/17 04:31:22;;;;;;;4.40;4.00;;;22.30;47.10;;;;;;5022867;28;20448;-47
2022/06/17 04:33:57;;;;;;;4.60;4.20;;;22.40;47.10;;;;;;5025518;28;20479;-45
2022/06/17 04:36:39;;;;;;;5.73;3.70;;;22.50;46.90;;;;;;5028638;28;20844;-48
2022/06/17 04:39:20;;;;;;;5.87;3.60;;;22.50;46.90;;;;;;5018132;28;20514;-47
2022/06/17 04:41:48;;;;;;;4.37;4.03;;;22.60;46.80;;;;;;5024491;28;21109;-47
2022/06/17 04:44:14;;;;;;;5.00;3.67;;;22.70;46.60;;;;;;5022393;28;20459;-46
2022/06/17 04:47:01;;;;;;;4.93;4.43;;;22.80;46.50;;;;;;5022906;28;20440;-49
2022/06/17 04:49:30;;;;;;;4.60;4.20;;;22.80;46.70;;;;;;5015294;28;20850;-45
2022/06/17 04:52:05;;;;;;;4.97;4.57;;;22.60;47.30;;;;;;5020700;28;20957;-44
2022/06/17 04:54:32;;;;;;;5.07;4.57;;;22.30;47.70;;;;;;5021655;28;20598;-47
2022/06/17 04:57:01;;;;;;;4.30;3.90;;;22.50;47.70;;;;;;5024757;28;20455;-46
2022/06/17 04:59:35;;;;;;;4.33;3.93;;;22.40;47.80;;;;;;5025092;28;20440;-46
2022/06/17 05:02:04;;;;;;;5.03;4.63;;;22.20;48.40;;;;;;5021768;28;20947;-45
2022/06/17 05:04:29;;;;;;;5.00;4.50;;;22.00;48.80;;;;;;5024239;28;20882;-47
2022/06/17 05:06:55;;;;;;;6.00;4.73;;;22.10;48.60;;;;;;5026178;28;20440;-44
2022/06/17 05:09:30;;;;;;;4.85;4.35;;;22.30;48.60;;;;;;5027271;28;20422;-49
2022/06/17 05:12:03;;;;;;;4.90;4.50;;;22.50;48.10;;;;;;5027424;28;20280;-47
2022/06/17 05:14:38;;;;;;;13.27;4.50;;;22.00;48.50;;;;;;5029218;28;20490;-44
2022/06/17 05:17:04;;;;;;;5.87;3.67;;;22.00;51.40;;;;;;5025241;28;20559;-46
2022/06/17 05:19:30;;;;;;;6.80;3.63;;;22.20;51.10;;;;;;5022174;28;20542;-47
2022/06/17 05:21:55;;;;;;;7.43;4.10;;;22.70;49.30;;;;;;5023786;28;20194;-47
2022/06/17 05:24:21;;;;;;;11.60;4.20;;;23.10;47.90;;;;;;5025574;28;20203;-47
2022/06/17 05:26:47;;;;;;;5.80;3.20;;;23.50;47.00;;;;;;5025009;28;20199;-47
2022/06/17 05:29:12;;;;;;;5.10;3.80;;;23.70;46.70;;;;;;5026369;28;20610;-47
2022/06/17 05:31:39;;;;;;;10.10;4.30;;;24.00;46.80;;;;;;5023156;28;20259;-47
2022/06/17 05:34:05;;;;;;;4.97;3.50;;;24.10;46.20;;;;;;5023804;28;20229;-51
2022/06/17 05:36:31;;;;;;;6.83;3.63;;;24.30;45.70;;;;;;5028001;28;20482;-51
2022/06/17 05:38:57;;;;;;;4.00;3.60;;;24.50;45.50;;;;;;5027548;28;20444;-48
2022/06/17 05:41:24;;;;;;;3.50;3.20;;;24.60;45.10;;;;;;5019873;28;20446;-46
2022/06/17 05:43:51;;;;;;;4.83;4.00;;;24.70;44.90;;;;;;5021341;28;20205;-47
2022/06/17 05:46:17;;;;;;;5.70;4.27;;;24.80;44.70;;;;;;5024797;28;21123;-49
2022/06/17 05:48:43;;;;;;;6.40;4.47;;;24.90;44.50;;;;;;5028534;28;20517;-46
2022/06/17 05:51:11;;;;;;;4.23;3.77;;;25.00;44.20;;;;;;5025968;28;20436;-50
2022/06/17 05:53:37;;;;;;;4.30;3.90;;;25.10;44.20;;;;;;5024565;28;20221;-48
2022/06/17 05:56:03;;;;;;;5.30;4.00;;;25.20;44.00;;;;;;5024224;28;20565;-47
2022/06/17 05:58:29;;;;;;;3.90;3.50;;;25.20;43.80;;;;;;5026152;28;20616;-50
2022/06/17 06:00:55;;;;;;;4.27;3.97;;;25.30;43.60;;;;;;5022563;28;20498;-47
2022/06/17 06:03:24;;;;;;;4.73;3.33;;;25.40;43.30;;;;;;5021978;28;20223;-47
2022/06/17 06:05:50;;;;;;;5.90;4.10;;;25.40;43.10;;;;;;5021853;28;20267;-46
2022/06/17 06:08:16;;;;;;;3.90;3.60;;;25.50;43.00;;;;;;5021577;28;20468;-45
2022/06/17 06:10:43;;;;;;;3.90;3.43;;;25.60;42.50;;;;;;5025049;28;20203;-46
2022/06/17 06:13:18;;;;;;;3.97;3.67;;;25.60;42.00;;;;;;5024359;28;20295;-42
2022/06/17 06:15:46;;;;;;;3.63;3.30;;;25.50;42.00;;;;;;5019664;28;20535;-43
2022/06/17 06:18:16;;;;;;;6.40;3.73;;;25.40;42.10;;;;;;5028539;28;20450;-44
2022/06/17 06:20:42;;;;;;;3.70;3.40;;;25.40;42.30;;;;;;5028948;28;20546;-42
2022/06/17 06:23:08;;;;;;;4.20;3.90;;;25.40;42.60;;;;;;5025403;28;20581;-42
2022/06/17 06:25:34;;;;;;;4.23;3.93;;;25.30;42.70;;;;;;5027125;28;20965;-43
2022/06/17 06:28:08;;;;;;;5.00;4.47;;;25.20;43.00;;;;;;5024949;28;20441;-42
2022/06/17 06:30:34;;;;;;;5.00;3.50;;;24.50;44.40;;;;;;5027677;28;20201;-42
2022/06/17 06:33:01;;;;;;;5.70;4.30;;;24.40;44.90;;;;;;5025189;28;20491;-43
2022/06/17 06:35:31;;;;;;;4.27;3.93;;;24.60;44.60;;;;;;5024407;28;20664;-45
2022/06/17 06:37:57;;;;;;;4.60;4.30;;;24.60;44.90;;;;;;5023727;28;20772;-46
2022/06/17 06:40:23;;;;;;;4.33;3.93;;;23.90;46.10;;;;;;5025983;28;20478;-46
2022/06/17 06:42:50;;;;;;;5.33;4.23;;;24.10;46.00;;;;;;5022132;28;20287;-46
2022/06/17 06:45:21;;;;;;;6.80;4.43;;;24.20;45.70;;;;;;5022141;28;20194;-45
2022/06/17 06:47:48;;;;;;;3.67;3.37;;;24.10;45.50;;;;;;5016590;28;20533;-44
2022/06/17 06:50:17;;;;;;;3.93;3.20;;;23.70;46.20;;;;;;5020525;28;20451;-44
2022/06/17 06:52:43;;;;;;;5.30;3.53;;;24.00;45.70;;;;;;5024296;28;20443;-45
2022/06/17 06:55:10;;;;;;;4.37;3.97;;;24.40;45.40;;;;;;5022880;28;20491;-45
2022/06/17 06:57:49;;;;;;;3.53;3.20;;;24.60;44.90;;;;;;5023519;28;20194;-44
2022/06/17 07:00:17;;;;;;;4.03;3.60;;;24.80;44.20;;;;;;5018922;28;20630;-44
2022/06/17 07:02:43;;;;;;;5.40;3.80;;;25.10;43.70;;;;;;5027164;28;21286;-49
2022/06/17 07:05:09;;;;;;;3.73;3.20;;;25.10;42.80;;;;;;5027536;28;20464;-44
2022/06/17 07:07:35;;;;;;;4.40;3.50;;;24.90;43.00;;;;;;5025433;28;20277;-44
2022/06/17 07:10:00;;;;;;;3.77;3.47;;;25.20;43.00;;;;;;5010234;28;20563;-44
2022/06/17 07:12:26;;;;;;;3.57;2.90;;;25.40;42.70;;;;;;5011002;28;20194;-44
2022/06/17 07:14:52;;;;;;;4.40;4.00;;;25.60;42.50;;;;;;5019234;28;20297;-43
2022/06/17 07:17:18;;;;;;;4.80;3.20;;;25.70;41.70;;;;;;5021157;28;20204;-45
2022/06/17 07:19:43;;;;;;;3.93;3.60;;;25.90;41.60;;;;;;5023261;28;20931;-43
2022/06/17 07:22:09;;;;;;;4.53;3.30;;;26.00;41.20;;;;;;5022424;28;20193;-45
2022/06/17 07:24:35;;;;;;;4.60;3.00;;;26.10;40.50;;;;;;5025179;28;20204;-47
2022/06/17 07:27:01;;;;;;;3.60;3.30;;;26.30;40.10;;;;;;5020885;28;20201;-44
2022/06/17 07:29:27;;;;;;;2.77;2.57;;;26.40;39.40;;;;;;5026621;28;20942;-43
2022/06/17 07:31:52;;;;;;;3.50;3.23;;;26.40;39.10;;;;;;5022874;28;20205;-45
2022/06/17 07:34:18;;;;;;;3.80;3.40;;;26.40;38.70;;;;;;5022545;28;20232;-47
2022/06/17 07:42:11;;;;;;;5.00;3.20;;;26.60;38.90;;;;;;5026682;28;21064;-44
2022/06/17 07:44:37;;;;;;;3.13;2.83;;;26.80;38.70;;;;;;5027096;28;20436;-46
2022/06/17 07:47:04;;;;;;;3.63;3.20;;;26.90;38.40;;;;;;5027546;28;20185;-41
2022/06/17 07:49:30;;;;;;;3.07;2.87;;;27.10;37.80;;;;;;5028028;28;20217;-42
2022/06/17 07:51:56;;;;;;;3.13;2.83;;;27.20;37.50;;;;;;5021495;28;20499;-42
2022/06/17 07:54:22;;;;;;;4.53;3.20;;;27.30;37.80;;;;;;5024644;28;20233;-41
2022/06/17 07:56:47;;;;;;;3.20;3.00;;;27.50;37.50;;;;;;5023122;28;20446;-44
2022/06/17 07:59:13;;;;;;;4.93;3.20;;;27.60;37.10;;;;;;5018637;28;20202;-43
2022/06/17 08:01:39;;;;;;;6.47;3.53;;;27.40;37.00;;;;;;5027086;28;20284;-43
2022/06/17 08:04:05;;;;;;;4.27;3.23;;;27.50;37.00;;;;;;5018344;28;20225;-42
2022/06/17 08:06:31;;;;;;;5.23;3.60;;;27.60;36.70;;;;;;5018280;28;20495;-44
2022/06/17 08:08:57;;;;;;;3.87;3.50;;;27.80;36.60;;;;;;5027881;28;20440;-44
2022/06/17 08:11:24;;;;;;;4.60;3.30;;;27.90;36.60;;;;;;5025663;28;20205;-43
2022/06/17 08:13:49;;;;;;;5.30;3.50;;;27.90;36.40;;;;;;5026509;28;20495;-43
2022/06/17 08:16:15;;;;;;;4.83;3.40;;;28.10;36.10;;;;;;5028683;28;20528;-43
2022/06/17 08:18:41;;;;;;;3.53;3.23;;;28.00;36.00;;;;;;5024081;28;20939;-43
2022/06/17 08:21:09;;;;;;;3.27;3.07;;;28.20;36.60;;;;;;5027931;28;20193;-42
2022/06/17 08:23:34;;;;;;;7.63;3.27;;;28.50;36.30;;;;;;5023264;28;21428;-43
2022/06/17 08:26:00;;;;;;;4.77;3.30;;;28.20;35.40;;;;;;5028144;28;20440;-43
2022/06/17 08:28:26;;;;;;;3.43;3.10;;;27.90;36.40;;;;;;5029475;28;20618;-44
2022/06/17 08:30:55;;;;;;;3.80;3.40;;;28.20;36.20;;;;;;5028081;28;20629;-43
2022/06/17 08:33:28;;;;;;;4.00;3.70;;;28.50;35.80;;;;;;5022385;28;20687;-43
2022/06/17 08:36:01;;;;;;;4.07;3.77;;;28.80;35.30;;;;;;5021604;28;20503;-43
2022/06/17 08:38:34;;;;;;;4.50;3.43;;;28.70;34.70;;;;;;5027358;28;20813;-44
2022/06/17 08:41:22;;;;;;;4.00;3.63;;;28.90;34.90;;;;;;5024391;28;20472;-43
2022/06/17 08:44:02;;;;;;;3.67;3.37;;;29.00;34.70;;;;;;5028690;28;20902;-43
2022/06/17 08:46:43;;;;;;;3.87;3.43;;;29.10;34.30;;;;;;5026833;28;20459;-43
2022/06/17 08:49:40;;;;;;;3.80;3.17;;;29.40;34.10;;;;;;5026014;28;20490;-43
2022/06/17 08:52:21;;;;;;;4.63;2.97;;;29.20;33.90;;;;;;5024172;28;21082;-43
2022/06/17 08:55:15;;;;;;;3.40;3.10;;;29.40;33.50;;;;;;5026531;28;20829;-43
2022/06/17 08:57:59;;;;;;;3.40;3.20;;;29.60;33.10;;;;;;5002598;28;20456;-44
2022/06/17 09:00:32;;;;;;;4.77;4.37;;;29.70;33.10;;;;;;5020058;28;20445;-44
2022/06/17 09:03:26;;;;;;;3.60;3.30;;;29.90;33.20;;;;;;5026930;28;20440;-45
2022/06/17 09:06:25;;;;;;;3.40;3.10;;;30.00;32.90;;;;;;5028482;28;20456;-46
2022/06/17 09:08:51;;;;;;;6.30;2.87;;;30.20;32.40;;;;;;5030051;28;20458;-43
2022/06/17 09:11:19;;;;;;;5.83;2.73;;;30.20;32.60;;;;;;5028976;28;20444;-43
2022/06/17 09:14:22;;;;;;;3.10;2.80;;;30.30;33.20;;;;;;5028439;28;20231;-45
2022/06/17 09:17:08;;;;;;;3.10;2.80;;;30.60;33.20;;;;;;5019692;28;20479;-44
2022/06/17 09:19:38;;;;;;;3.07;2.83;;;30.70;31.90;;;;;;5030851;28;20455;-47
2022/06/17 09:22:25;;;;;;;3.10;2.83;;;30.80;32.00;;;;;;5028240;28;20508;-44
2022/06/17 09:24:52;;;;;;;3.40;3.20;;;30.90;32.30;;;;;;5027599;28;20447;-45
2022/06/17 09:27:40;;;;;;;3.10;2.90;;;30.90;32.30;;;;;;5027399;28;20535;-44
2022/06/17 09:30:17;;;;;;;3.33;3.10;;;31.10;32.00;;;;;;5022883;28;20951;-44
2022/06/17 09:32:49;;;;;;;3.90;3.60;;;31.20;31.30;;;;;;5022107;28;20451;-47
2022/06/17 09:35:44;;;;;;;4.00;2.90;;;31.30;31.20;;;;;;5027768;28;20518;-43
2022/06/17 09:38:21;;;;;;;3.27;2.97;;;31.40;31.60;;;;;;4999137;28;20459;-44
2022/06/17 09:41:20;;;;;;;3.00;2.70;;;31.50;31.30;;;;;;5020043;28;20477;-43
2022/06/17 09:43:53;;;;;;;3.43;3.23;;;31.60;30.70;;;;;;5003218;28;20449;-44
2022/06/17 09:46:30;;;;;;;3.20;2.90;;;31.70;30.80;;;;;;5024593;28;20802;-44
2022/06/17 09:49:18;;;;;;;3.23;3.00;;;31.80;29.90;;;;;;5025586;28;20450;-45
2022/06/17 09:51:46;;;;;;;3.53;2.87;;;31.80;29.60;;;;;;5022230;28;20855;-45
2022/06/17 09:54:27;;;;;;;3.00;2.70;;;31.80;30.00;;;;;;5027555;28;20522;-45
2022/06/17 09:57:18;;;;;;;3.80;3.00;;;32.00;30.00;;;;;;5025703;28;20503;-45
2022/06/17 09:59:49;;;;;;;3.07;2.87;;;31.90;29.40;;;;;;5019066;28;21155;-45
2022/06/17 10:02:15;;;;;;;3.90;2.90;;;32.00;29.60;;;;;;5025830;28;20447;-44
2022/06/17 10:04:40;;;;;;;4.70;2.80;;;32.00;29.50;;;;;;5024134;28;20440;-45
2022/06/17 10:07:26;;;;;;;3.43;2.70;;;32.00;29.30;;;;;;5025762;28;20193;-45
2022/06/17 10:10:26;;;;;;;5.17;2.30;;;32.30;29.50;;;;;;5021310;28;20200;-44
2022/06/17 10:13:10;;;;;;;2.90;2.70;;;32.40;29.20;;;;;;4968886;28;20587;-44
2022/06/17 10:19:19;;;;;;;3.77;3.47;;;32.80;28.40;;;;;;5021964;28;20531;-44
2022/06/17 10:22:22;;;;;;;3.20;2.90;;;32.90;28.30;;;;;;5026080;28;20524;-45
2022/06/17 10:25:20;;;;;;;3.00;2.50;;;32.80;28.10;;;;;;5020238;28;20452;-44
2022/06/17 10:27:48;;;;;;;3.07;2.87;;;32.90;28.00;;;;;;5027757;28;20466;-45
2022/06/17 10:30:27;;;;;;;3.13;2.93;;;32.80;28.50;;;;;;5027823;28;20461;-45
2022/06/17 10:32:54;;;;;;;3.10;2.90;;;33.00;28.00;;;;;;5025628;28;20966;-44
2022/06/17 10:35:28;;;;;;;2.80;2.60;;;33.20;27.80;;;;;;5026728;28;20478;-45
2022/06/17 10:37:59;;;;;;;4.07;2.77;;;33.10;28.60;;;;;;5025920;28;20531;-45
2022/06/17 10:40:29;;;;;;;3.10;2.60;;;33.20;28.70;;;;;;5025300;28;20539;-44
2022/06/17 10:42:57;;;;;;;5.80;3.33;;;33.60;28.70;;;;;;5025210;28;20440;-48
2022/06/17 10:45:24;;;;;;;3.00;2.77;;;33.70;27.60;;;;;;5026555;28;20452;-48
2022/06/17 10:48:20;;;;;;;3.60;3.30;;;33.90;27.50;;;;;;5022224;28;20456;-48
2022/06/17 10:50:45;;;;;;;2.80;2.40;;;34.10;27.60;;;;;;5021795;28;20444;-45
2022/06/17 10:53:46;;;;;;;2.93;2.60;;;34.20;27.20;;;;;;5027556;28;20487;-46
2022/06/17 10:56:24;;;;;;;3.77;2.83;;;34.40;27.10;;;;;;5024563;28;20228;-45
2022/06/17 10:58:58;;;;;;;5.50;3.17;;;34.50;27.00;;;;;;5025175;28;20998;-45
2022/06/17 11:01:25;;;;;;;2.93;2.63;;;34.70;26.40;;;;;;5025189;28;20494;-46
2022/06/17 11:04:10;;;;;;;3.83;3.53;;;34.80;26.20;;;;;;5023953;28;20859;-44
2022/06/17 11:06:46;;;;;;;4.73;2.97;;;34.90;26.10;;;;;;5013998;28;20486;-45
2022/06/17 11:09:22;;;;;;;3.17;2.80;;;34.90;26.20;;;;;;5018692;28;20448;-48
2022/06/17 11:12:03;;;;;;;3.47;2.60;;;34.80;25.50;;;;;;5022855;28;20534;-45
2022/06/17 11:14:44;;;;;;;3.07;2.77;;;34.90;25.60;;;;;;5027306;28;20490;-49
2022/06/17 11:17:15;;;;;;;2.90;2.70;;;34.90;25.60;;;;;;5025822;28;20444;-49
2022/06/17 11:19:42;;;;;;;4.03;2.50;;;35.10;25.30;;;;;;5020530;28;20452;-47
2022/06/17 11:22:36;;;;;;;3.00;2.30;;;35.10;25.20;;;;;;5021195;28;20876;-46
2022/06/17 11:25:21;;;;;;;2.70;2.50;;;35.10;25.00;;;;;;5026732;28;20545;-46
2022/06/17 11:27:57;;;;;;;2.73;2.53;;;35.10;24.40;;;;;;5028438;28;20863;-47
2022/06/17 11:30:34;;;;;;;2.63;2.43;;;34.90;24.40;;;;;;5022523;28;20822;-43
2022/06/17 11:33:01;;;;;;;2.37;2.17;;;34.80;24.60;;;;;;5021313;28;20455;-41
2022/06/17 11:35:29;;;;;;;2.23;2.10;;;34.60;24.70;;;;;;5018775;28;20442;-46
2022/06/17 11:37:57;;;;;;;1.80;1.70;;;34.50;24.70;;;;;;5026718;28;20535;-44
2022/06/17 11:40:26;;;;;;;2.20;2.10;;;34.50;23.20;;;;;;5029843;28;20442;-42
2022/06/17 11:42:58;;;;;;;2.20;1.97;;;34.70;24.10;;;;;;5027286;28;20451;-46
2022/06/17 11:45:39;;;;;;;2.93;2.73;;;34.10;24.70;;;;;;5030334;28;20970;-44
2022/06/17 11:48:10;;;;;;;2.40;2.20;;;34.20;24.90;;;;;;5027797;28;20809;-47
2022/06/17 11:50:40;;;;;;;2.20;2.10;;;33.60;24.40;;;;;;5032202;28;20538;-45
2022/06/17 11:53:16;;;;;;;3.07;2.07;;;33.80;24.50;;;;;;5018486;28;20480;-44
2022/06/17 11:55:49;;;;;;;2.90;2.60;;;34.40;24.60;;;;;;5028402;28;20541;-45
2022/06/17 11:58:17;;;;;;;2.00;1.90;;;34.80;23.40;;;;;;5028092;28;20467;-43
2022/06/17 12:00:52;;;;;;;4.93;2.20;;;35.30;23.50;;;;;;5029931;28;20440;-43
2022/06/17 12:03:42;;;;;;;2.30;2.10;;;35.50;23.40;;;;;;5015821;28;20460;-44
2022/06/17 12:06:24;;;;;;;2.20;2.00;;;35.70;23.40;;;;;;5027033;28;20942;-44
2022/06/17 12:09:15;;;;;;;2.17;1.97;;;35.80;23.40;;;;;;5030458;28;20448;-45
2022/06/17 12:11:56;;;;;;;2.97;2.50;;;36.00;23.30;;;;;;5029428;28;20552;-43
2022/06/17 12:14:29;;;;;;;2.33;2.13;;;36.10;22.90;;;;;;5022179;28;20483;-47
2022/06/17 12:16:57;;;;;;;2.10;2.00;;;36.10;23.10;;;;;;5028860;28;20814;-45
2022/06/17 12:19:22;;;;;;;2.50;2.30;;;35.60;23.00;;;;;;5031060;28;20451;-46
2022/06/17 12:22:00;;;;;;;2.00;1.90;;;35.30;23.40;;;;;;5030060;28;20431;-47
2022/06/17 12:24:44;;;;;;;2.90;2.60;;;35.70;23.00;;;;;;5027598;28;20279;-49
2022/06/17 12:27:15;;;;;;;2.63;2.43;;;36.10;22.80;;;;;;5026733;28;20443;-45
2022/06/17 12:30:05;;;;;;;3.43;2.43;;;36.40;23.00;;;;;;5025483;28;20455;-43
2022/06/17 12:32:55;;;;;;;1.90;1.80;;;36.70;22.30;;;;;;5026630;28;20463;-43
2022/06/17 12:35:40;;;;;;;2.27;2.17;;;36.80;22.00;;;;;;5022072;28;20455;-44
2022/06/17 12:38:27;;;;;;;2.20;2.10;;;36.90;22.30;;;;;;5028118;28;20482;-44
2022/06/17 12:40:56;;;;;;;2.93;2.57;;;37.00;21.80;;;;;;5026907;28;20494;-44
2022/06/17 12:43:35;;;;;;;2.80;2.10;;;37.10;22.20;;;;;;5025628;28;20448;-43
2022/06/17 12:46:08;;;;;;;4.13;2.57;;;37.20;22.00;;;;;;5028332;28;21234;-42
2022/06/17 12:48:39;;;;;;;2.20;2.00;;;37.30;22.20;;;;;;5029419;28;20435;-43
2022/06/17 12:54:43;;;;;;;2.20;2.10;;;37.50;22.00;;;;;;5025315;28;20590;-44
2022/06/17 12:57:19;;;;;;;1.90;1.80;;;37.40;21.70;;;;;;5021566;28;20493;-44
2022/06/17 12:59:51;;;;;;;6.20;2.20;;;37.50;22.10;;;;;;5020154;28;20431;-42
2022/06/17 13:02:43;;;;;;;2.47;2.27;;;37.60;21.80;;;;;;5025482;28;20833;-42
2022/06/17 13:05:16;;;;;;;2.00;1.90;;;37.70;21.30;;;;;;5015919;28;20447;-44
2022/06/17 13:07:47;;;;;;;1.80;1.70;;;37.80;21.30;;;;;;5029463;28;20450;-45
2022/06/17 13:10:40;;;;;;;3.03;1.93;;;37.80;21.40;;;;;;5019841;28;20554;-45
2022/06/17 13:13:53;;;;;;;2.20;2.00;;;37.90;21.50;;;;;;5026545;28;20475;-43
2022/06/17 13:16:27;;;;;;;2.57;2.00;;;38.00;21.90;;;;;;5018186;28;20564;-46
2022/06/17 13:19:02;;;;;;;2.17;1.77;;;38.10;21.00;;;;;;5027632;28;20948;-43
2022/06/17 13:21:42;;;;;;;2.97;2.67;;;38.00;20.80;;;;;;5027281;28;20517;-46
2022/06/17 13:24:20;;;;;;;2.00;1.90;;;37.80;20.60;;;;;;5018136;28;20469;-46
2022/06/17 13:26:46;;;;;;;3.90;1.80;;;37.70;20.90;;;;;;5029469;28;20526;-43
2022/06/17 13:29:34;;;;;;;2.20;2.10;;;37.80;20.90;;;;;;5027706;28;20927;-44
2022/06/17 13:32:10;;;;;;;2.10;1.90;;;37.90;21.90;;;;;;5023786;28;20185;-48